createdAt,value
2022-10-21T00:00:51.899Z,2.90
2022-10-21T00:03:20.891Z,3.17
2022-10-21T00:05:49.202Z,2.53
2022-10-21T00:08:18.219Z,2.20
2022-10-21T00:10:46.194Z,2.40
2022-10-21T00:13:15.464Z,2.93
2022-10-21T00:15:43.415Z,3.87
2022-10-21T00:18:11.377Z,2.67
2022-10-21T00:20:41.591Z,2.67
2022-10-21T00:23:09.505Z,1.80
2022-10-21T00:25:39.745Z,2.57
2022-10-21T00:28:07.664Z,2.27
2022-10-21T00:30:36.993Z,2.00
2022-10-21T00:33:04.986Z,3.17
2022-10-21T00:35:34.949Z,2.87
2022-10-21T00:38:02.881Z,3.03
2022-10-21T00:40:31.291Z,3.30
2022-10-21T00:42:59.685Z,2.47
2022-10-21T00:45:28.803Z,3.20
2022-10-21T00:48:04.055Z,4.07
2022-10-21T00:50:38.708Z,3.20
2022-10-21T00:53:14.281Z,1.73
2022-10-21T00:55:47.678Z,2.73
2022-10-21T00:58:16.685Z,2.83
2022-10-21T01:00:44.688Z,2.43
2022-10-21T01:03:14.699Z,2.67
2022-10-21T01:05:44.868Z,3.67
2022-10-21T01:08:13.186Z,3.03
2022-10-21T01:10:41.373Z,2.30
2022-10-21T01:13:20.741Z,3.80
2022-10-21T01:15:55.275Z,2.77
2022-10-21T01:18:32.166Z,4.27
2022-10-21T01:21:08.284Z,2.80
2022-10-21T01:27:03.477Z,2.53
2022-10-21T01:30:06.037Z,2.73
2022-10-21T01:32:44.779Z,3.87
2022-10-21T01:35:19.855Z,3.00
2022-10-21T01:37:56.631Z,2.43
2022-10-21T01:40:32.495Z,2.33
2022-10-21T01:43:05.000Z,2.30
2022-10-21T01:45:37.328Z,4.57
2022-10-21T01:48:09.648Z,3.20
2022-10-21T01:50:42.048Z,3.50
2022-10-21T01:53:12.847Z,3.23
2022-10-21T01:55:42.753Z,3.10
2022-10-21T01:58:14.856Z,3.63
2022-10-21T02:00:44.591Z,3.07
2022-10-21T02:03:19.073Z,3.20
2022-10-21T02:05:47.064Z,2.30
2022-10-21T02:08:15.056Z,2.70
2022-10-21T02:10:46.460Z,1.77
2022-10-21T02:13:18.672Z,3.43
2022-10-21T02:15:47.017Z,3.70
2022-10-21T02:18:22.924Z,3.30
2022-10-21T02:20:55.720Z,3.80
2022-10-21T02:23:32.621Z,2.53
2022-10-21T02:26:00.926Z,2.83
2022-10-21T02:28:29.097Z,3.03
2022-10-21T02:31:06.386Z,3.67
2022-10-21T02:33:48.257Z,1.90
2022-10-21T02:36:20.952Z,3.37
2022-10-21T02:38:53.481Z,2.20
2022-10-21T02:41:25.840Z,3.00
2022-10-21T02:43:57.852Z,2.30
2022-10-21T02:46:27.040Z,2.60
2022-10-21T02:48:56.325Z,3.23
2022-10-21T02:51:24.327Z,2.43
2022-10-21T02:53:52.298Z,3.17
2022-10-21T02:56:20.311Z,2.40
2022-10-21T02:58:48.353Z,3.53
2022-10-21T03:01:16.345Z,2.83
2022-10-21T03:03:44.329Z,2.33
2022-10-21T03:06:13.742Z,2.73
2022-10-21T03:08:41.715Z,2.10
2022-10-21T03:11:09.722Z,2.53
2022-10-21T03:13:37.699Z,2.20
2022-10-21T03:16:06.152Z,3.10
2022-10-21T03:18:34.123Z,2.67
2022-10-21T03:21:02.093Z,2.70
2022-10-21T03:23:31.391Z,2.20
2022-10-21T03:25:59.366Z,2.03
2022-10-21T03:28:27.882Z,2.63
2022-10-21T03:30:55.931Z,3.20
2022-10-21T03:33:23.914Z,3.80
2022-10-21T03:35:52.063Z,2.90
2022-10-21T03:38:20.030Z,1.83
2022-10-21T03:40:50.889Z,2.83
2022-10-21T03:43:18.909Z,2.23
2022-10-21T03:45:48.246Z,2.83
2022-10-21T03:48:16.333Z,3.50
2022-10-21T03:50:44.271Z,2.47
2022-10-21T03:53:24.417Z,2.63
2022-10-21T03:56:00.066Z,2.23
2022-10-21T03:58:28.400Z,1.90
2022-10-21T04:00:56.778Z,2.60
2022-10-21T04:03:24.682Z,2.43
2022-10-21T04:05:52.605Z,3.03
2022-10-21T04:08:20.537Z,3.30
2022-10-21T04:10:49.152Z,2.03
2022-10-21T04:13:18.468Z,2.17
2022-10-21T04:15:46.634Z,2.97
2022-10-21T04:18:14.552Z,2.93
2022-10-21T04:20:42.619Z,2.73
2022-10-21T04:23:10.550Z,3.70
2022-10-21T04:25:38.537Z,2.50
2022-10-21T04:28:06.451Z,3.40
2022-10-21T04:30:35.732Z,1.83
2022-10-21T04:33:03.687Z,1.80
2022-10-21T04:35:31.614Z,2.60
2022-10-21T04:38:00.489Z,2.33
2022-10-21T04:40:28.768Z,3.53
2022-10-21T04:42:56.788Z,3.30
2022-10-21T04:45:24.795Z,2.30
2022-10-21T04:47:54.116Z,2.77
2022-10-21T04:50:22.567Z,2.93
2022-10-21T04:52:50.518Z,2.20
2022-10-21T04:55:18.570Z,2.27
2022-10-21T04:57:46.513Z,2.83
2022-10-21T05:00:15.147Z,3.50
2022-10-21T05:02:43.159Z,4.20
2022-10-21T05:05:12.471Z,2.60
2022-10-21T05:07:40.418Z,2.77
2022-10-21T05:10:09.052Z,2.80
2022-10-21T05:12:37.044Z,2.97
2022-10-21T05:15:05.415Z,2.47
2022-10-21T05:17:33.379Z,3.20
2022-10-21T05:20:01.302Z,2.70
2022-10-21T05:22:30.586Z,2.83
2022-10-21T05:24:58.495Z,2.80
2022-10-21T05:27:26.534Z,2.30
2022-10-21T05:29:54.474Z,2.90
2022-10-21T05:32:22.447Z,2.77
2022-10-21T05:34:50.355Z,3.10
2022-10-21T05:37:18.316Z,2.83
2022-10-21T05:39:47.619Z,2.50
2022-10-21T05:42:15.572Z,2.30
2022-10-21T05:44:43.532Z,2.50
2022-10-21T05:47:11.506Z,2.73
2022-10-21T05:49:39.423Z,2.23
2022-10-21T05:52:07.339Z,2.60
2022-10-21T05:54:35.250Z,2.47
2022-10-21T05:57:04.677Z,2.13
2022-10-21T05:59:32.606Z,2.63
2022-10-21T06:02:00.619Z,2.33
2022-10-21T06:04:28.523Z,2.40
2022-10-21T06:09:29.428Z,3.50
2022-10-21T06:11:57.958Z,2.37
2022-10-21T06:14:27.667Z,3.17
2022-10-21T06:16:55.569Z,2.83
2022-10-21T06:19:23.517Z,2.77
2022-10-21T06:21:51.436Z,3.90
2022-10-21T06:24:19.351Z,3.47
2022-10-21T06:26:47.284Z,4.20
2022-10-21T06:29:15.848Z,3.47
2022-10-21T06:31:45.151Z,2.73
2022-10-21T06:34:13.125Z,2.80
2022-10-21T06:36:41.105Z,3.60
2022-10-21T06:39:09.460Z,2.73
2022-10-21T06:41:37.431Z,3.33
2022-10-21T06:44:05.656Z,4.83
2022-10-21T06:46:33.668Z,3.70
2022-10-21T06:49:02.984Z,3.47
2022-10-21T06:51:31.464Z,3.23
2022-10-21T06:54:00.478Z,2.80
2022-10-21T06:56:29.076Z,2.10
2022-10-21T06:58:58.739Z,2.90
2022-10-21T07:01:41.068Z,2.43
2022-10-21T07:04:11.348Z,3.03
2022-10-21T07:06:39.600Z,3.10
2022-10-21T07:09:08.856Z,2.10
2022-10-21T07:11:37.644Z,2.67
2022-10-21T07:14:05.754Z,2.40
2022-10-21T07:16:35.638Z,1.90
2022-10-21T07:19:04.132Z,3.13
2022-10-21T07:21:34.000Z,3.30
2022-10-21T07:24:02.260Z,2.90
2022-10-21T07:26:32.540Z,2.30
2022-10-21T07:29:01.052Z,2.40
2022-10-21T07:31:31.737Z,3.00
2022-10-21T07:34:00.961Z,2.10
2022-10-21T07:36:30.809Z,3.30
2022-10-21T07:39:02.401Z,2.63
2022-10-21T07:41:32.580Z,2.47
2022-10-21T07:44:00.781Z,2.67
2022-10-21T07:46:29.069Z,4.10
2022-10-21T07:48:57.283Z,2.40
2022-10-21T07:51:28.708Z,1.87
2022-10-21T07:54:01.037Z,2.47
2022-10-21T07:56:31.765Z,1.77
2022-10-21T07:59:01.489Z,2.30
2022-10-21T08:01:30.042Z,2.93
2022-10-21T08:03:58.619Z,2.50
2022-10-21T08:06:28.769Z,3.07
2022-10-21T08:08:58.203Z,2.40
2022-10-21T08:11:29.327Z,2.63
2022-10-21T08:13:58.322Z,3.13
2022-10-21T08:16:27.052Z,3.03
2022-10-21T08:18:55.444Z,2.13
2022-10-21T08:21:23.565Z,2.20
2022-10-21T08:23:51.548Z,2.90
2022-10-21T08:26:19.620Z,2.60
2022-10-21T08:28:49.046Z,1.90
2022-10-21T08:31:18.800Z,1.90
2022-10-21T08:33:47.097Z,2.83
2022-10-21T08:36:17.468Z,1.90
2022-10-21T08:38:45.722Z,2.70
2022-10-21T08:41:28.305Z,2.97
2022-10-21T08:44:01.312Z,2.00
2022-10-21T08:46:34.280Z,3.63
2022-10-21T08:49:07.489Z,2.17
2022-10-21T08:51:39.332Z,2.40
2022-10-21T08:54:10.681Z,2.27
2022-10-21T08:56:38.671Z,3.00
2022-10-21T08:59:24.165Z,2.80
2022-10-21T09:02:00.251Z,2.17
2022-10-21T09:04:38.338Z,2.30
2022-10-21T09:07:14.919Z,2.10
2022-10-21T09:09:51.028Z,2.63
2022-10-21T09:12:26.779Z,3.97
2022-10-21T09:15:18.995Z,2.53
2022-10-21T09:18:07.902Z,2.67
2022-10-21T09:20:56.003Z,2.93
2022-10-21T09:23:43.711Z,2.83
2022-10-21T09:26:30.250Z,3.20
2022-10-21T09:28:58.893Z,3.07
2022-10-21T09:31:30.344Z,2.77
2022-10-21T09:34:01.971Z,3.53
2022-10-21T09:36:36.107Z,3.17
2022-10-21T09:39:08.758Z,2.10
2022-10-21T09:41:42.530Z,2.80
2022-10-21T09:44:15.742Z,2.43
2022-10-21T09:46:46.664Z,3.50
2022-10-21T09:49:54.116Z,2.20
2022-10-21T09:52:12.584Z,2.13
2022-10-21T09:54:42.463Z,3.20
2022-10-21T09:57:14.169Z,2.70
2022-10-21T09:59:52.249Z,4.27
2022-10-21T10:02:28.109Z,3.60
2022-10-21T10:04:56.103Z,3.60
2022-10-21T10:07:32.335Z,2.73
2022-10-21T10:10:00.319Z,2.90
2022-10-21T10:12:30.518Z,3.57
2022-10-21T10:15:09.507Z,2.37
2022-10-21T10:17:39.814Z,2.43
2022-10-21T10:20:17.719Z,3.13
2022-10-21T10:22:47.955Z,2.90
2022-10-21T10:25:26.426Z,3.40
2022-10-21T10:27:56.621Z,1.87
2022-10-21T10:30:26.512Z,3.17
2022-10-21T10:32:57.319Z,2.53
2022-10-21T10:35:30.640Z,2.50
2022-10-21T10:38:00.176Z,2.80
2022-10-21T10:40:32.481Z,2.20
2022-10-21T10:43:05.631Z,2.20
2022-10-21T10:45:33.758Z,3.00
2022-10-21T10:48:04.684Z,2.10
2022-10-21T10:50:44.006Z,2.00
2022-10-21T10:53:38.320Z,3.43
2022-10-21T10:56:16.326Z,3.10
2022-10-21T10:58:49.324Z,2.73
2022-10-21T11:01:26.090Z,2.60
2022-10-21T11:04:00.856Z,2.73
2022-10-21T11:06:36.318Z,2.23
2022-10-21T11:09:07.053Z,2.97
2022-10-21T11:11:39.934Z,2.97
2022-10-21T11:14:15.434Z,3.20
2022-10-21T11:17:00.857Z,2.63
2022-10-21T11:19:42.703Z,2.33
2022-10-21T11:22:14.951Z,3.27
2022-10-21T11:24:55.871Z,2.67
2022-10-21T11:27:58.545Z,1.63
2022-10-21T11:30:35.381Z,1.77
2022-10-21T11:33:11.366Z,1.90
2022-10-21T11:35:51.323Z,3.17
2022-10-21T11:38:38.309Z,2.40
2022-10-21T11:41:22.873Z,2.20
2022-10-21T11:44:03.435Z,2.00
2022-10-21T11:46:44.951Z,2.07
2022-10-21T11:49:28.315Z,1.93
2022-10-21T11:52:09.670Z,2.50
2022-10-21T11:55:09.013Z,2.20
2022-10-21T11:57:44.265Z,2.13
2022-10-21T12:00:15.057Z,2.33
2022-10-21T12:02:44.907Z,1.63
2022-10-21T12:05:22.658Z,1.77
2022-10-21T12:08:14.545Z,1.33
2022-10-21T12:10:48.397Z,1.70
2022-10-21T12:13:21.356Z,1.30
2022-10-21T12:15:53.548Z,1.20
2022-10-21T12:18:24.735Z,1.50
2022-10-21T12:20:54.582Z,0.80
2022-10-21T12:23:26.357Z,0.87
2022-10-21T12:26:16.807Z,1.00
2022-10-21T12:28:50.578Z,1.10
2022-10-21T12:31:28.515Z,0.70
2022-10-21T12:33:57.625Z,0.93
2022-10-21T12:36:45.824Z,0.80
2022-10-21T12:39:47.268Z,0.70
2022-10-21T12:42:19.095Z,0.73
2022-10-21T12:44:48.145Z,0.90
2022-10-21T12:47:25.977Z,0.70
2022-10-21T12:50:23.403Z,0.60
2022-10-21T12:53:20.063Z,0.80
2022-10-21T12:55:51.329Z,0.80
2022-10-21T12:58:31.276Z,0.50
2022-10-21T13:01:00.279Z,1.30
2022-10-21T13:03:51.591Z,0.90
2022-10-21T13:06:50.431Z,0.80
2022-10-21T13:09:40.833Z,1.67
2022-10-21T13:12:29.769Z,0.60
2022-10-21T13:15:00.802Z,0.57
2022-10-21T13:17:50.165Z,0.60
2022-10-21T13:20:47.391Z,0.80
2022-10-21T13:23:33.585Z,0.60
2022-10-21T13:26:21.995Z,0.60
2022-10-21T13:29:06.844Z,0.70
2022-10-21T13:31:36.192Z,0.73
2022-10-21T13:34:05.433Z,0.90
2022-10-21T13:36:41.084Z,1.23
2022-10-21T13:39:23.864Z,0.50
2022-10-21T13:42:02.425Z,0.50
2022-10-21T13:44:35.729Z,0.83
2022-10-21T13:47:26.545Z,0.63
2022-10-21T13:49:56.733Z,0.70
2022-10-21T13:52:29.384Z,0.60
2022-10-21T13:54:58.545Z,0.70
2022-10-21T13:57:29.949Z,0.70
2022-10-21T14:00:02.781Z,0.80
2022-10-21T14:02:32.209Z,0.70
2022-10-21T14:05:00.174Z,0.70
2022-10-21T14:07:29.255Z,0.93
2022-10-21T14:09:59.590Z,0.70
2022-10-21T14:12:33.035Z,0.80
2022-10-21T14:15:07.389Z,0.97
2022-10-21T14:17:42.007Z,0.70
2022-10-21T14:20:17.379Z,0.80
2022-10-21T14:22:49.771Z,0.60
2022-10-21T14:25:19.787Z,0.60
2022-10-21T14:27:48.883Z,0.90
2022-10-21T14:30:20.340Z,1.10
2022-10-21T14:32:50.433Z,0.63
2022-10-21T14:35:27.821Z,1.00
2022-10-21T14:37:57.745Z,0.97
2022-10-21T14:40:32.101Z,0.97
2022-10-21T14:43:02.061Z,0.60
2022-10-21T14:45:32.810Z,0.90
2022-10-21T14:48:09.891Z,1.10
2022-10-21T14:50:39.829Z,1.33
2022-10-21T14:53:16.343Z,0.80
2022-10-21T14:55:45.355Z,0.70
2022-10-21T15:00:57.085Z,0.80
2022-10-21T15:03:41.108Z,0.70
2022-10-21T15:06:11.409Z,0.60
2022-10-21T15:08:42.631Z,1.00
2022-10-21T15:11:15.366Z,1.00
2022-10-21T15:14:00.019Z,0.87
2022-10-21T15:16:30.543Z,1.10
2022-10-21T15:19:07.055Z,1.10
2022-10-21T15:21:38.264Z,0.90
2022-10-21T15:24:07.156Z,0.90
2022-10-21T15:26:37.661Z,0.80
2022-10-21T15:29:14.847Z,1.17
2022-10-21T15:31:43.282Z,0.77
2022-10-21T15:34:15.216Z,0.87
2022-10-21T15:36:44.022Z,1.23
2022-10-21T15:39:12.865Z,1.07
2022-10-21T15:41:41.356Z,0.80
2022-10-21T15:44:18.977Z,1.73
2022-10-21T15:46:47.982Z,0.90
2022-10-21T15:49:19.800Z,1.00
2022-10-21T15:51:49.273Z,2.17
2022-10-21T15:54:18.806Z,1.00
2022-10-21T15:56:48.925Z,0.80
2022-10-21T15:59:19.079Z,0.77
2022-10-21T16:01:47.449Z,0.73
2022-10-21T16:04:17.100Z,1.07
2022-10-21T16:06:48.147Z,1.00
2022-10-21T16:09:20.493Z,1.10
2022-10-21T16:11:59.082Z,1.83
2022-10-21T16:14:29.620Z,2.10
2022-10-21T16:16:58.748Z,1.63
2022-10-21T16:19:28.869Z,1.40
2022-10-21T16:21:57.408Z,1.17
2022-10-21T16:24:25.572Z,0.83
2022-10-21T16:26:53.546Z,1.50
2022-10-21T16:29:23.577Z,2.07
2022-10-21T16:31:52.267Z,1.57
2022-10-21T16:34:20.929Z,2.20
2022-10-21T16:36:50.311Z,2.37
2022-10-21T16:39:20.326Z,3.20
2022-10-21T16:41:48.470Z,2.60
2022-10-21T16:44:16.714Z,1.63
2022-10-21T16:46:50.364Z,1.40
2022-10-21T16:49:22.944Z,1.37
2022-10-21T16:51:53.537Z,1.10
2022-10-21T16:54:23.623Z,1.30
2022-10-21T16:56:54.881Z,0.93
2022-10-21T16:59:23.519Z,1.10
2022-10-21T17:01:51.701Z,1.40
2022-10-21T17:04:19.665Z,2.10
2022-10-21T17:06:47.769Z,1.50
2022-10-21T17:09:17.155Z,1.03
2022-10-21T17:11:45.173Z,1.30
2022-10-21T17:14:16.292Z,1.30
2022-10-21T17:16:45.286Z,1.17
2022-10-21T17:19:13.358Z,1.53
2022-10-21T17:21:41.286Z,2.23
2022-10-21T17:24:10.191Z,1.50
2022-10-21T17:26:39.934Z,0.90
2022-10-21T17:29:07.918Z,0.90
2022-10-21T17:31:37.804Z,1.30
2022-10-21T17:34:07.552Z,1.00
2022-10-21T17:36:35.970Z,1.10
2022-10-21T17:39:04.205Z,0.83
2022-10-21T17:41:32.163Z,0.63
2022-10-21T17:44:03.297Z,0.67
2022-10-21T17:46:31.225Z,1.53
2022-10-21T17:48:59.777Z,1.13
2022-10-21T17:51:27.782Z,1.13
2022-10-21T17:53:56.303Z,0.70
2022-10-21T17:56:24.620Z,1.50
2022-10-21T17:58:53.782Z,0.93
2022-10-21T18:01:24.560Z,1.10
2022-10-21T18:03:52.949Z,1.40
2022-10-21T18:06:22.276Z,1.00
2022-10-21T18:08:50.350Z,0.97
2022-10-21T18:11:21.574Z,1.73
2022-10-21T18:13:53.585Z,1.77
2022-10-21T18:16:25.953Z,1.83
2022-10-21T18:18:57.325Z,1.70
2022-10-21T18:21:28.362Z,2.70
2022-10-21T18:23:56.462Z,3.63
2022-10-21T18:26:26.140Z,1.83
2022-10-21T18:28:57.015Z,3.13
2022-10-21T18:31:29.887Z,2.43
2022-10-21T18:33:59.297Z,2.30
2022-10-21T18:36:27.881Z,2.07
2022-10-21T18:38:56.235Z,1.27
2022-10-21T18:41:24.239Z,2.30
2022-10-21T18:43:53.904Z,1.27
2022-10-21T18:46:23.446Z,1.20
2022-10-21T18:48:53.288Z,1.33
2022-10-21T18:51:23.139Z,1.90
2022-10-21T18:53:52.972Z,2.33
2022-10-21T18:56:22.754Z,2.03
2022-10-21T18:58:51.448Z,2.80
2022-10-21T19:01:20.509Z,1.80
2022-10-21T19:03:50.765Z,2.10
2022-10-21T19:06:31.383Z,2.50
2022-10-21T19:09:01.078Z,3.63
2022-10-21T19:11:29.840Z,2.87
2022-10-21T19:13:57.985Z,2.00
2022-10-21T19:16:26.022Z,2.17
2022-10-21T19:18:54.761Z,2.07
2022-10-21T19:21:25.431Z,2.10
2022-10-21T19:23:54.212Z,1.77
2022-10-21T19:26:24.198Z,1.20
2022-10-21T19:28:52.377Z,1.10
2022-10-21T19:31:21.585Z,1.73
2022-10-21T19:33:49.524Z,1.53
2022-10-21T19:36:17.480Z,1.23
2022-10-21T19:38:46.789Z,1.10
2022-10-21T19:41:17.512Z,0.97
2022-10-21T19:43:45.656Z,0.90
2022-10-21T19:46:20.049Z,1.10
2022-10-21T19:48:50.639Z,0.70
2022-10-21T19:51:20.897Z,1.10
2022-10-21T19:53:51.346Z,0.70
2022-10-21T19:56:23.759Z,1.73
2022-10-21T19:58:55.376Z,1.23
2022-10-21T20:01:26.528Z,1.07
2022-10-21T20:03:55.509Z,1.00
2022-10-21T20:06:25.211Z,1.60
2022-10-21T20:08:56.936Z,1.60
2022-10-21T20:11:25.864Z,1.97
2022-10-21T20:13:54.082Z,1.40
2022-10-21T20:16:25.172Z,2.47
2022-10-21T20:18:53.544Z,2.40
2022-10-21T20:21:22.860Z,3.10
2022-10-21T20:23:50.850Z,2.03
2022-10-21T20:26:20.566Z,2.33
2022-10-21T20:28:48.521Z,2.30
2022-10-21T20:31:17.111Z,1.43
2022-10-21T20:33:46.971Z,1.60
2022-10-21T20:36:17.351Z,1.50
2022-10-21T20:38:45.308Z,1.63
2022-10-21T20:41:17.374Z,1.63
2022-10-21T20:43:46.684Z,1.10
2022-10-21T20:46:14.924Z,1.03
2022-10-21T20:48:45.181Z,1.40
2022-10-21T20:51:15.128Z,1.67
2022-10-21T20:56:19.355Z,2.00
2022-10-21T20:58:49.488Z,1.60
2022-10-21T21:01:20.293Z,2.50
2022-10-21T21:03:50.986Z,6.37
2022-10-21T21:06:19.810Z,2.03
2022-10-21T21:08:53.505Z,1.50
2022-10-21T21:11:36.571Z,3.07
2022-10-21T21:14:06.524Z,6.10
2022-10-21T21:16:34.629Z,3.33
2022-10-21T21:19:04.227Z,2.70
2022-10-21T21:21:33.641Z,2.60
2022-10-21T21:24:01.829Z,4.97
2022-10-21T21:26:31.726Z,3.40
2022-10-21T21:29:00.509Z,4.43
2022-10-21T21:31:31.125Z,2.90
2022-10-21T21:33:59.559Z,2.20
2022-10-21T21:36:28.071Z,2.57
2022-10-21T21:38:56.066Z,2.83
2022-10-21T21:41:25.195Z,2.33
2022-10-21T21:43:54.587Z,3.40
2022-10-21T21:46:24.346Z,4.20
2022-10-21T21:48:56.712Z,3.03
2022-10-21T21:51:27.923Z,2.43
2022-10-21T21:53:56.953Z,2.30
2022-10-21T21:56:26.151Z,1.97
2022-10-21T21:58:56.084Z,2.67
2022-10-21T22:01:25.498Z,1.43
2022-10-21T22:03:55.087Z,2.17
2022-10-21T22:08:57.910Z,1.47
2022-10-21T22:11:28.023Z,1.10
2022-10-21T22:13:56.204Z,1.30
2022-10-21T22:16:27.386Z,1.30
2022-10-21T22:18:57.820Z,1.07
2022-10-21T22:21:26.128Z,1.23
2022-10-21T22:23:54.204Z,1.10
2022-10-21T22:26:23.707Z,1.03
2022-10-21T22:28:51.641Z,1.13
2022-10-21T22:31:19.767Z,2.70
2022-10-21T22:33:47.954Z,0.80
2022-10-21T22:36:17.771Z,0.93
2022-10-21T22:38:46.236Z,1.20
2022-10-21T22:41:14.632Z,0.90
2022-10-21T22:43:43.760Z,0.60
2022-10-21T22:48:59.986Z,1.20
2022-10-21T22:51:29.312Z,0.80
2022-10-21T22:53:57.285Z,1.00
2022-10-21T22:56:25.801Z,0.70
2022-10-21T22:58:54.267Z,0.70
2022-10-21T23:01:24.020Z,0.87
2022-10-21T23:03:52.796Z,1.00
2022-10-21T23:06:20.808Z,1.40
2022-10-21T23:08:50.363Z,0.70
2022-10-21T23:11:18.343Z,1.10
2022-10-21T23:13:56.360Z,1.00
2022-10-21T23:16:30.936Z,1.30
2022-10-21T23:18:59.148Z,1.23
2022-10-21T23:21:27.147Z,0.90
2022-10-21T23:23:56.495Z,1.60
2022-10-21T23:26:24.476Z,0.80
2022-10-21T23:28:52.401Z,1.10
2022-10-21T23:31:20.805Z,0.90
2022-10-21T23:33:48.736Z,0.97
2022-10-21T23:36:16.684Z,1.40
2022-10-21T23:38:44.617Z,0.80
2022-10-21T23:41:13.954Z,0.97
2022-10-21T23:43:41.949Z,1.43
2022-10-21T23:46:09.912Z,1.17
2022-10-21T23:48:37.860Z,0.90
2022-10-21T23:51:06.367Z,1.00
2022-10-21T23:53:34.298Z,1.00
2022-10-21T23:56:02.230Z,1.03
2022-10-21T23:58:31.630Z,0.70
